Time;durP1;ratioP1;P1;durP2;ratioP2;P2;SDS_P1;SDS_P2;PMS_P1;PMS_P2;Temp;Humidity;BMP_temperature;BMP_pressure;BME280_temperature;BME280_humidity;BME280_pressure;Samples;Min_cycle;Max_cycle;Signal;HPM_P1;HPM_P2
2021/12/25 00:00:22;;;;;;;18.60;9.02;;;;;;;-1.91;77.68;96168.19;5114147;28;20094;-66
2021/12/25 00:02:48;;;;;;;12.52;6.70;;;;;;;-1.91;77.88;96157.06;5114280;28;20020;-68
2021/12/25 00:05:16;;;;;;;8.43;5.38;;;;;;;-2.00;77.72;96146.75;5114044;28;20020;-67
2021/12/25 00:07:42;;;;;;;6.43;3.60;;;;;;;-2.00;78.17;96149.31;5114108;28;20027;-68
2021/12/25 00:10:08;;;;;;;4.00;3.60;;;;;;;-2.05;77.91;96151.84;5114085;28;20084;-64
2021/12/25 00:12:34;;;;;;;5.22;3.80;;;;;;;-2.16;78.95;96152.66;5113928;28;20054;-63
2021/12/25 00:15:00;;;;;;;6.20;3.72;;;;;;;-2.08;79.60;96139.88;5114010;28;20051;-64
2021/12/25 00:17:27;;;;;;;7.32;3.75;;;;;;;-2.00;79.12;96142.50;5113842;28;20020;-63
2021/12/25 00:19:55;;;;;;;11.90;5.40;;;;;;;-2.01;78.47;96132.25;5113907;28;20031;-70
2021/12/25 00:22:21;;;;;;;12.98;7.03;;;;;;;-2.04;79.48;96141.63;5113743;28;20381;-65
2021/12/25 00:24:48;;;;;;;9.70;5.57;;;;;;;-1.89;79.39;96145.13;5113783;28;20048;-68
2021/12/25 00:29:57;;;;;;;4.78;3.50;;;;;;;-1.81;78.63;96161.41;5113877;28;20050;-68
2021/12/25 00:34:50;;;;;;;13.38;7.25;;;;;;;-1.74;77.72;96164.00;5113822;28;20051;-65
2021/12/25 00:37:17;;;;;;;14.23;7.30;;;;;;;-1.73;77.56;96165.69;5113504;28;20039;-68
2021/12/25 00:39:46;;;;;;;12.32;6.93;;;;;;;-1.69;77.19;96164.84;5113239;28;20019;-66
2021/12/25 00:42:12;;;;;;;8.27;4.68;;;;;;;-1.71;77.13;96164.00;5113735;28;20016;-68
2021/12/25 00:44:37;;;;;;;8.18;4.82;;;;;;;-1.75;77.07;96169.97;5113696;28;20051;-64
2021/12/25 00:47:05;;;;;;;6.78;4.35;;;;;;;-1.75;77.28;96180.25;5113453;28;20099;-66
2021/12/25 00:49:31;;;;;;;8.93;4.78;;;;;;;-1.81;77.41;96181.03;5113426;28;20023;-66
2021/12/25 00:51:57;;;;;;;8.20;4.15;;;;;;;-1.89;77.47;96177.59;5113584;28;20024;-69
2021/12/25 00:54:23;;;;;;;5.78;4.07;;;;;;;-1.98;77.63;96166.44;5113575;28;20020;-67
2021/12/25 00:56:49;;;;;;;6.85;4.50;;;;;;;-1.99;78.25;96177.53;5113744;28;20032;-65
2021/12/25 00:59:16;;;;;;;6.60;4.10;;;;;;;-1.97;78.18;96172.41;5113505;28;20157;-68
2021/12/25 01:01:41;;;;;;;6.47;4.38;;;;;;;-2.03;78.94;96169.00;5113460;28;20068;-66
2021/12/25 01:04:07;;;;;;;6.80;4.47;;;;;;;-2.04;79.27;96161.28;5113443;28;20024;-66
2021/12/25 01:06:33;;;;;;;6.88;4.57;;;;;;;-2.00;79.37;96163.00;5113346;28;20541;-63
2021/12/25 01:08:58;;;;;;;8.80;5.47;;;;;;;-2.03;78.90;96148.47;5113175;28;20024;-66
2021/12/25 01:11:27;;;;;;;7.82;4.00;;;;;;;-1.96;78.86;96151.09;5113395;28;20095;-68
2021/12/25 01:14:00;;;;;;;7.13;4.55;;;;;;;-1.91;79.48;96146.81;5113503;28;20027;-64
2021/12/25 01:27:23;;;;;;;8.57;4.93;;;;;;;-1.78;78.83;96145.16;5113324;28;20024;-70
2021/12/25 01:40:41;;;;;;;6.40;4.43;;;;;;;-1.75;78.55;96157.16;5113413;28;20042;-68
2021/12/25 01:48:30;;;;;;;6.15;3.95;;;;;;;-1.75;78.07;96142.59;5113342;28;20038;-68
2021/12/25 01:50:56;;;;;;;7.55;4.90;;;;;;;-1.75;78.27;96132.34;5115650;28;20110;-68
2021/12/25 01:53:21;;;;;;;6.57;4.18;;;;;;;-1.85;78.85;96149.41;5116890;28;20128;-67
2021/12/25 01:55:47;;;;;;;6.93;4.47;;;;;;;-1.89;78.83;96151.94;5116588;27;20168;-64
2021/12/25 01:58:13;;;;;;;6.75;4.80;;;;;;;-1.93;79.33;96146.81;5116631;28;20414;-64
2021/12/25 02:00:47;;;;;;;5.32;3.70;;;;;;;-1.85;78.75;96140.84;5116567;28;20028;-66
2021/12/25 02:03:15;;;;;;;12.07;4.40;;;;;;;-1.84;78.59;96153.69;5115612;28;20031;-71
2021/12/25 02:05:41;;;;;;;7.68;3.70;;;;;;;-1.84;79.16;96156.25;5116419;28;20020;-67
2021/12/25 02:08:07;;;;;;;6.30;4.32;;;;;;;-1.74;78.38;96148.59;5116495;28;20051;-66
2021/12/25 02:10:33;;;;;;;5.75;4.20;;;;;;;-1.74;77.81;96146.03;5116509;28;20019;-63
2021/12/25 02:13:01;;;;;;;6.28;4.43;;;;;;;-1.81;77.73;96151.13;5116518;28;20438;-65
2021/12/25 02:15:28;;;;;;;5.03;3.90;;;;;;;-1.86;77.78;96149.41;5116358;28;20034;-69
2021/12/25 02:18:09;;;;;;;6.57;4.40;;;;;;;-1.81;77.72;96145.13;5116282;28;20106;-69
2021/12/25 02:20:54;;;;;;;5.70;3.83;;;;;;;-1.84;77.58;96138.28;5116275;28;20026;-65
2021/12/25 02:23:23;;;;;;;7.57;4.20;;;;;;;-1.85;77.89;96143.41;5115983;28;20509;-66
2021/12/25 02:25:51;;;;;;;5.22;3.92;;;;;;;-1.89;78.30;96142.56;5116239;28;20021;-64
2021/12/25 02:28:18;;;;;;;5.22;3.60;;;;;;;-1.93;78.50;96139.13;5115942;28;20099;-66
2021/12/25 02:30:46;;;;;;;5.85;4.05;;;;;;;-1.91;78.67;96134.88;5115880;28;20063;-69
2021/12/25 02:33:11;;;;;;;9.18;3.88;;;;;;;-1.90;78.60;96135.69;5116090;27;20411;-65
2021/12/25 02:35:37;;;;;;;9.05;4.50;;;;;;;-1.85;78.94;96141.72;5116088;28;20020;-66
2021/12/25 02:38:04;;;;;;;8.52;4.30;;;;;;;-1.81;79.79;96153.69;5116009;28;20376;-68
2021/12/25 02:40:30;;;;;;;6.00;3.85;;;;;;;-1.76;79.02;96145.16;5115856;28;20072;-63
2021/12/25 02:42:56;;;;;;;7.13;4.68;;;;;;;-1.77;78.15;96141.75;5115832;28;20419;-67
2021/12/25 02:45:23;;;;;;;7.15;3.38;;;;;;;-1.85;77.98;96139.16;5116064;28;20023;-67
2021/12/25 02:47:55;;;;;;;4.68;3.25;;;;;;;-1.95;78.90;96140.84;5115821;28;20553;-63
2021/12/25 02:50:32;;;;;;;6.70;3.58;;;;;;;-2.00;79.24;96144.19;5115524;28;20053;-65
2021/12/25 02:53:00;;;;;;;5.63;3.65;;;;;;;-1.91;79.87;96146.81;5115662;28;20435;-69
2021/12/25 02:55:27;;;;;;;5.47;3.92;;;;;;;-1.91;79.95;96149.38;5115674;28;20058;-66
2021/12/25 02:57:53;;;;;;;5.47;3.72;;;;;;;-1.87;79.85;96156.22;5115585;28;20022;-65
2021/12/25 03:00:31;;;;;;;11.45;7.15;;;;;;;-1.83;79.42;96157.13;5115499;28;20386;-66
2021/12/25 03:02:57;;;;;;;10.05;5.32;;;;;;;-1.80;79.38;96149.44;5114923;28;20031;-67
2021/12/25 03:05:24;;;;;;;6.60;4.38;;;;;;;-1.84;79.43;96153.69;5115286;28;20020;-65
2021/12/25 03:07:50;;;;;;;5.53;3.67;;;;;;;-1.79;79.35;96153.72;5115208;27;20039;-69
2021/12/25 03:10:17;;;;;;;4.70;3.78;;;;;;;-1.79;79.64;96152.00;5115209;28;20068;-65
2021/12/25 03:12:53;;;;;;;5.47;3.70;;;;;;;-1.74;78.93;96148.59;5115328;28;20468;-66
2021/12/25 03:15:31;;;;;;;6.03;4.18;;;;;;;-1.70;78.54;96155.47;5115236;28;20424;-65
2021/12/25 03:17:57;;;;;;;9.02;5.00;;;;;;;-1.66;78.16;96149.47;5115095;28;20150;-66
2021/12/25 03:20:24;;;;;;;6.40;4.80;;;;;;;-1.68;78.56;96158.91;5115079;28;20020;-63
2021/12/25 03:22:50;;;;;;;6.55;3.40;;;;;;;-1.72;78.42;96162.31;5114853;28;20043;-64
2021/12/25 03:25:17;;;;;;;4.80;3.45;;;;;;;-1.80;79.22;96168.22;5115014;28;20031;-66
2021/12/25 03:27:45;;;;;;;5.28;3.30;;;;;;;-1.81;79.83;96163.97;5115104;28;20024;-65
2021/12/25 03:30:15;;;;;;;6.05;4.22;;;;;;;-1.75;79.99;96172.56;5114860;28;20028;-69
2021/12/25 03:32:41;;;;;;;6.63;4.07;;;;;;;-1.80;79.92;96175.09;5115064;28;20104;-67
2021/12/25 03:35:07;;;;;;;5.18;3.95;;;;;;;-1.81;80.01;96168.22;5114857;27;20028;-66
2021/12/25 03:37:33;;;;;;;6.07;4.15;;;;;;;-1.84;80.86;96163.09;5114805;28;20533;-68
2021/12/25 03:39:58;;;;;;;5.78;3.72;;;;;;;-1.83;80.80;96162.25;5114612;28;20473;-69
2021/12/25 03:42:24;;;;;;;7.25;4.00;;;;;;;-1.85;80.63;96166.50;5114658;28;20016;-67
2021/12/25 03:44:50;;;;;;;5.65;3.35;;;;;;;-1.85;80.53;96171.63;5114904;28;20099;-65
2021/12/25 03:47:33;;;;;;;5.22;3.72;;;;;;;-1.79;80.50;96171.66;5114621;28;20106;-67
2021/12/25 03:58:11;;;;;;;8.63;5.13;;;;;;;-1.66;79.98;96176.00;5114766;28;20488;-66
2021/12/25 04:00:38;;;;;;;7.38;4.38;;;;;;;-1.67;78.79;96171.72;5113150;28;20131;-69
2021/12/25 04:03:08;;;;;;;7.10;4.43;;;;;;;-1.62;78.47;96178.59;5114152;28;20087;-70
2021/12/25 04:05:37;;;;;;;4.90;3.80;;;;;;;-1.73;78.64;96171.69;5114195;28;20040;-69
2021/12/25 04:10:33;;;;;;;5.50;4.32;;;;;;;-1.83;79.14;96168.25;5114159;28;20027;-68
2021/12/25 04:12:59;;;;;;;4.63;3.38;;;;;;;-1.75;78.83;96180.25;5113473;28;20032;-67
2021/12/25 04:15:24;;;;;;;3.80;2.72;;;;;;;-1.81;79.13;96183.59;5113703;28;20374;-66
2021/12/25 04:17:50;;;;;;;4.85;3.65;;;;;;;-1.81;79.24;96186.16;5113950;28;20023;-64
2021/12/25 04:20:17;;;;;;;6.68;3.70;;;;;;;-1.85;79.43;96192.16;5114018;28;20022;-68
2021/12/25 04:22:48;;;;;;;3.60;2.97;;;;;;;-1.86;79.46;96185.31;5114026;28;20039;-66
2021/12/25 04:25:19;;;;;;;8.35;3.10;;;;;;;-1.89;79.97;96181.03;5113986;28;20023;-65
2021/12/25 04:27:45;;;;;;;4.07;3.30;;;;;;;-1.85;79.87;96179.31;5113816;28;20477;-67
2021/12/25 05:05:02;;;;;;;9.27;4.18;;;;;;;-1.85;79.32;96204.97;5113453;28;20028;-66
2021/12/25 05:07:28;;;;;;;6.03;4.65;;;;;;;-1.83;79.11;96216.97;5113365;28;20020;-70
2021/12/25 05:09:53;;;;;;;5.65;3.47;;;;;;;-1.91;79.39;96209.22;5113590;28;20040;-63
2021/12/25 05:12:20;;;;;;;5.82;3.55;;;;;;;-1.91;79.72;96209.22;5113523;28;20432;-68
2021/12/25 05:14:45;;;;;;;4.30;3.08;;;;;;;-1.87;79.59;96209.25;5113294;28;20038;-67
2021/12/25 05:17:13;;;;;;;5.25;3.60;;;;;;;-1.93;79.64;96204.91;5113538;28;20020;-67
2021/12/25 05:19:39;;;;;;;5.85;3.65;;;;;;;-1.89;79.84;96209.25;5113531;28;20456;-66
2021/12/25 05:22:05;;;;;;;5.25;3.72;;;;;;;-1.94;80.04;96210.91;5113437;28;20024;-65
2021/12/25 05:24:30;;;;;;;5.13;3.67;;;;;;;-1.90;80.00;96215.19;5113664;28;20104;-63
2021/12/25 05:26:57;;;;;;;8.68;5.03;;;;;;;-1.91;79.74;96216.91;5117253;28;20020;-66
2021/12/25 05:29:25;;;;;;;6.07;3.90;;;;;;;-1.85;79.53;96217.78;5117701;28;20238;-65
2021/12/25 05:31:52;;;;;;;4.32;3.65;;;;;;;-1.91;79.57;96228.88;5117277;28;20024;-65
2021/12/25 05:34:18;;;;;;;3.88;3.17;;;;;;;-2.04;80.11;96225.38;5117227;28;20146;-65
2021/12/25 05:36:43;;;;;;;5.00;2.90;;;;;;;-2.00;80.34;96228.81;5117234;28;20219;-70
2021/12/25 05:39:12;;;;;;;5.97;3.33;;;;;;;-1.95;80.24;96220.31;5117110;28;20020;-64
2021/12/25 05:41:38;;;;;;;10.05;3.58;;;;;;;-1.91;80.70;96231.44;5117128;28;20024;-69
2021/12/25 05:44:04;;;;;;;5.75;3.90;;;;;;;-1.84;80.44;96246.00;5117102;28;20034;-64
2021/12/25 05:46:30;;;;;;;11.55;5.03;;;;;;;-1.80;80.32;96237.47;5116952;28;20027;-63
2021/12/25 05:48:56;;;;;;;18.10;10.60;;;;;;;-1.81;79.90;96234.91;5117017;28;20023;-69
2021/12/25 05:51:22;;;;;;;12.40;8.25;;;;;;;-1.74;80.00;96240.94;5116675;28;20075;-65
2021/12/25 05:53:48;;;;;;;11.48;5.30;;;;;;;-1.67;79.62;96242.69;5116848;28;20055;-68
2021/12/25 05:56:14;;;;;;;7.65;3.70;;;;;;;-1.76;80.38;96243.50;5116722;28;20042;-67
2021/12/25 05:58:41;;;;;;;6.00;3.63;;;;;;;-1.79;81.09;96241.78;5116666;28;20047;-71
2021/12/25 06:01:07;;;;;;;7.55;3.92;;;;;;;-1.87;81.54;96245.16;5116703;28;20032;-63
2021/12/25 06:03:33;;;;;;;10.60;6.55;;;;;;;-1.78;81.52;96245.19;5116817;28;20020;-67
2021/12/25 06:05:59;;;;;;;9.10;5.65;;;;;;;-1.66;81.07;96242.69;5116750;28;20034;-64
2021/12/25 06:08:27;;;;;;;5.80;4.20;;;;;;;-1.59;80.52;96242.75;5116500;28;20020;-65
2021/12/25 06:10:52;;;;;;;5.75;3.78;;;;;;;-1.59;80.57;96253.88;5116477;28;20024;-65
2021/12/25 06:13:20;;;;;;;5.15;3.80;;;;;;;-1.49;80.51;96239.38;5116444;28;20031;-66
2021/12/25 06:15:47;;;;;;;6.93;3.55;;;;;;;-1.45;80.50;96238.53;5116257;28;20035;-67
2021/12/25 06:18:13;;;;;;;8.02;4.65;;;;;;;-1.42;81.58;96242.81;5116313;28;20033;-69
2021/12/25 06:20:39;;;;;;;5.38;3.95;;;;;;;-1.31;81.48;96248.00;5116163;28;20020;-67
2021/12/25 06:23:05;;;;;;;7.68;4.38;;;;;;;-1.18;81.49;96248.88;5116012;27;20413;-65
2021/12/25 06:25:32;;;;;;;5.60;4.13;;;;;;;-0.89;81.10;96261.00;5116209;28;20030;-67
2021/12/25 06:27:58;;;;;;;6.10;3.83;;;;;;;-0.44;81.08;96252.50;5116172;28;20023;-67
2021/12/25 06:30:24;;;;;;;6.28;3.58;;;;;;;0.09;78.56;96250.78;5116166;28;20032;-66
2021/12/25 06:32:50;;;;;;;7.95;4.65;;;;;;;0.49;77.69;96249.00;5116083;27;20069;-64
2021/12/25 06:35:16;;;;;;;5.57;3.70;;;;;;;0.90;75.84;96265.16;5116074;28;20028;-67
2021/12/25 06:37:45;;;;;;;9.45;4.55;;;;;;;1.14;74.41;96271.06;5114907;27;20393;-67
2021/12/25 06:40:16;;;;;;;6.68;4.20;;;;;;;1.32;73.42;96270.09;5115746;28;20489;-69
2021/12/25 06:42:42;;;;;;;7.00;3.75;;;;;;;1.49;73.23;96270.03;5115883;28;20023;-66
2021/12/25 06:45:09;;;;;;;3.80;3.13;;;;;;;1.74;72.11;96276.72;5115961;28;20054;-68
2021/12/25 06:47:34;;;;;;;7.30;3.40;;;;;;;2.17;70.46;96265.22;5115803;28;20081;-65
2021/12/25 06:50:00;;;;;;;3.90;2.95;;;;;;;2.42;70.13;96266.69;5115566;28;20023;-69
2021/12/25 06:52:25;;;;;;;4.85;3.40;;;;;;;2.61;69.92;96267.34;5115763;28;20102;-67
2021/12/25 06:54:51;;;;;;;5.38;3.80;;;;;;;2.70;69.41;96264.69;5115730;28;20106;-66
2021/12/25 06:57:18;;;;;;;7.72;4.55;;;;;;;2.74;69.08;96273.25;5115668;27;20027;-67
2021/12/25 06:59:44;;;;;;;4.63;3.70;;;;;;;2.79;68.39;96286.97;5115607;28;20528;-65
2021/12/25 07:02:12;;;;;;;4.55;2.88;;;;;;;2.89;68.47;96282.56;5115327;28;20052;-70
2021/12/25 07:04:38;;;;;;;4.63;3.22;;;;;;;3.06;67.81;96279.78;5115452;28;20076;-66
2021/12/25 07:07:04;;;;;;;6.15;3.72;;;;;;;3.07;66.86;96278.06;5115751;28;20024;-68
2021/12/25 07:09:29;;;;;;;4.18;3.15;;;;;;;3.00;67.27;96278.13;5115413;28;20027;-63
2021/12/25 07:11:56;;;;;;;4.85;3.55;;;;;;;3.07;67.79;96291.81;5115287;28;20104;-67
2021/12/25 07:14:22;;;;;;;6.72;3.53;;;;;;;3.29;67.46;96300.16;5115242;28;20034;-68
2021/12/25 07:16:49;;;;;;;6.40;3.75;;;;;;;3.58;66.66;96299.81;5115307;28;20050;-67
2021/12/25 07:19:15;;;;;;;5.68;3.58;;;;;;;3.77;65.84;96305.56;5115117;28;20016;-66
2021/12/25 07:21:42;;;;;;;4.47;3.40;;;;;;;3.94;65.43;96302.72;5115075;28;20023;-67
2021/12/25 07:24:09;;;;;;;5.28;3.40;;;;;;;4.18;65.16;96300.59;5114889;28;20182;-67
2021/12/25 07:26:36;;;;;;;5.70;4.18;;;;;;;4.43;64.35;96300.22;5115010;28;20040;-68
2021/12/25 07:29:03;;;;;;;5.93;3.72;;;;;;;4.74;62.82;96297.06;5115070;28;20484;-67
2021/12/25 07:31:28;;;;;;;7.93;4.65;;;;;;;4.87;62.48;96295.09;5114950;28;20024;-68
2021/12/25 07:33:54;;;;;;;7.30;5.05;;;;;;;5.13;62.27;96311.88;5114849;28;20423;-67
2021/12/25 07:36:20;;;;;;;7.28;4.82;;;;;;;5.92;60.11;96306.75;5114789;28;20477;-68
2021/12/25 07:38:46;;;;;;;7.03;5.30;;;;;;;6.83;58.17;96309.75;5114676;28;20072;-69
2021/12/25 07:41:12;;;;;;;8.25;6.25;;;;;;;7.86;54.62;96312.06;5114598;28;20139;-66
2021/12/25 07:43:38;;;;;;;9.07;6.22;;;;;;;8.82;51.87;96320.31;5114937;28;20019;-68
2021/12/25 07:46:04;;;;;;;8.80;6.63;;;;;;;9.35;50.31;96319.31;5114745;28;20016;-68
2021/12/25 07:48:31;;;;;;;10.02;7.10;;;;;;;9.88;49.73;96320.84;5114403;28;20099;-71
2021/12/25 07:50:57;;;;;;;7.18;5.35;;;;;;;10.43;48.64;96306.47;5114335;28;20039;-62
2021/12/25 07:53:23;;;;;;;8.15;4.88;;;;;;;11.30;46.61;96302.84;5114451;28;20024;-65
2021/12/25 07:55:49;;;;;;;8.27;5.30;;;;;;;12.88;43.69;96312.03;5114457;28;20031;-68
2021/12/25 07:58:17;;;;;;;9.90;6.28;;;;;;;13.71;40.80;96317.44;5114497;28;20023;-69
2021/12/25 08:00:43;;;;;;;19.17;13.38;;;;;;;13.52;41.64;96318.44;5114153;28;20378;-66
2021/12/25 08:03:10;;;;;;;17.58;12.82;;;;;;;12.98;42.65;96322.88;5114198;28;20462;-71
2021/12/25 08:05:36;;;;;;;7.78;6.25;;;;;;;12.76;43.41;96323.13;5114374;28;20050;-63
2021/12/25 08:08:03;;;;;;;7.82;5.53;;;;;;;12.63;43.48;96320.28;5114307;28;20044;-66
2021/12/25 08:10:31;;;;;;;7.57;5.97;;;;;;;12.43;43.92;96310.78;5114160;28;20035;-68
2021/12/25 08:12:58;;;;;;;7.63;6.28;;;;;;;12.33;44.55;96318.25;5114160;28;20381;-66
2021/12/25 08:15:29;;;;;;;8.32;6.15;;;;;;;12.42;44.43;96316.94;5113935;28;20030;-65
2021/12/25 08:17:57;;;;;;;9.25;7.82;;;;;;;12.30;44.40;96313.13;5114109;28;20042;-67
2021/12/25 08:20:23;;;;;;;9.05;7.18;;;;;;;12.54;44.19;96311.09;5113950;28;20500;-64
2021/12/25 08:22:52;;;;;;;13.30;9.50;;;;;;;13.44;42.49;96307.44;5113799;28;20048;-64
2021/12/25 08:25:19;;;;;;;17.77;12.77;;;;;;;13.96;40.94;96305.56;5113857;28;20381;-65
2021/12/25 08:27:46;;;;;;;20.27;13.95;;;;;;;14.29;40.37;96307.25;5114008;28;20477;-66
2021/12/25 08:30:16;;;;;;;17.35;12.43;;;;;;;14.18;39.83;96310.47;5113866;28;20016;-65
2021/12/25 08:32:43;;;;;;;13.32;6.45;;;;;;;13.49;42.26;96302.81;5113913;28;20123;-63
2021/12/25 08:35:12;;;;;;;12.00;6.22;;;;;;;12.79;43.56;96304.59;5113802;28;20031;-65
2021/12/25 08:37:39;;;;;;;9.35;6.93;;;;;;;13.08;43.51;96310.16;5113854;28;20031;-68
2021/12/25 08:40:07;;;;;;;7.70;5.57;;;;;;;14.06;40.88;96309.38;5113442;28;20050;-63
2021/12/25 08:42:33;;;;;;;6.93;5.50;;;;;;;14.75;38.27;96309.00;5113726;28;20026;-69
2021/12/25 08:47:26;;;;;;;5.65;4.72;;;;;;;14.79;36.53;96322.88;5113800;28;20024;-61
2021/12/25 08:49:52;;;;;;;5.72;4.60;;;;;;;14.52;36.64;96315.59;5113465;28;20056;-70
2021/12/25 08:52:20;;;;;;;7.28;4.97;;;;;;;13.98;37.52;96312.44;5113447;28;20064;-67
2021/12/25 08:54:48;;;;;;;8.90;6.57;;;;;;;14.11;38.18;96309.97;5113908;28;20119;-64
2021/12/25 08:57:16;;;;;;;7.53;5.90;;;;;;;13.97;37.89;96299.38;5113571;28;20126;-69
2021/12/25 08:59:42;;;;;;;6.63;5.38;;;;;;;13.76;39.20;96295.22;5114466;28;20026;-61
2021/12/25 09:02:12;;;;;;;7.47;5.00;;;;;;;13.90;38.81;96302.34;5117829;28;20032;-64
2021/12/25 09:04:39;;;;;;;7.22;5.47;;;;;;;13.95;37.88;96304.72;5117654;28;20076;-66
2021/12/25 09:07:07;;;;;;;7.15;4.80;;;;;;;13.80;38.32;96298.53;5117782;28;20076;-63
2021/12/25 09:09:33;;;;;;;7.57;5.47;;;;;;;13.64;38.97;96290.66;5117477;28;20028;-66
2021/12/25 09:11:59;;;;;;;8.90;4.88;;;;;;;13.35;39.65;96287.75;5117747;28;20469;-68
2021/12/25 09:14:25;;;;;;;7.38;4.70;;;;;;;13.00;40.16;96276.41;5117437;28;20028;-63
2021/12/25 09:16:52;;;;;;;4.32;3.90;;;;;;;12.37;40.83;96265.56;5117412;28;20542;-61
2021/12/25 09:19:18;;;;;;;7.25;4.57;;;;;;;12.17;41.93;96266.56;5117611;28;20023;-70
2021/12/25 09:21:44;;;;;;;7.05;5.32;;;;;;;11.94;42.11;96268.47;5117486;28;20030;-63
2021/12/25 09:24:09;;;;;;;4.78;4.15;;;;;;;11.52;43.21;96259.09;5117294;28;20039;-66
2021/12/25 09:26:35;;;;;;;5.78;4.00;;;;;;;11.36;42.89;96263.28;5117201;28;20022;-66
2021/12/25 09:29:02;;;;;;;8.38;3.97;;;;;;;10.96;43.94;96258.03;5117319;28;20016;-67
2021/12/25 09:31:27;;;;;;;5.57;3.83;;;;;;;10.66;45.30;96249.78;5117125;28;20039;-66
2021/12/25 09:33:54;;;;;;;6.38;4.25;;;;;;;10.38;45.37;96251.75;5117291;28;20389;-64
2021/12/25 09:36:20;;;;;;;5.68;4.13;;;;;;;10.26;46.18;96254.91;5117217;28;20695;-66
2021/12/25 09:38:46;;;;;;;11.48;7.93;;;;;;;10.25;46.06;96248.81;5117062;28;20024;-65
2021/12/25 09:41:12;;;;;;;10.88;6.80;;;;;;;10.19;46.37;96246.44;5117015;28;20020;-66
2021/12/25 09:43:39;;;;;;;15.48;10.68;;;;;;;10.15;46.42;96239.66;5116832;28;20372;-66
2021/12/25 09:46:06;;;;;;;18.95;12.75;;;;;;;10.12;46.52;96232.78;5116882;28;20555;-66
2021/12/25 09:48:33;;;;;;;20.38;13.13;;;;;;;10.07;46.13;96227.75;5116952;28;20111;-67
2021/12/25 09:51:00;;;;;;;24.77;14.60;;;;;;;9.98;46.50;96228.13;5116712;28;20164;-64
2021/12/25 09:53:28;;;;;;;24.67;13.05;;;;;;;9.86;46.64;96225.09;5116759;28;20015;-65
2021/12/25 09:55:54;;;;;;;15.85;9.35;;;;;;;9.88;46.64;96238.09;5116696;28;20114;-65
2021/12/25 09:58:22;;;;;;;12.90;8.27;;;;;;;9.96;46.54;96243.84;5116933;28;20036;-65
2021/12/25 10:00:51;;;;;;;12.00;6.65;;;;;;;10.15;46.59;96244.88;5116766;28;20027;-63
2021/12/25 10:03:19;;;;;;;9.02;4.82;;;;;;;10.24;45.91;96236.66;5116608;28;20029;-65
2021/12/25 10:05:47;;;;;;;7.15;5.88;;;;;;;10.30;45.29;96236.38;5116672;28;20038;-63
2021/12/25 10:08:17;;;;;;;5.70;4.55;;;;;;;10.35;45.44;96229.22;5116569;27;20073;-66
2021/12/25 10:10:55;;;;;;;8.50;4.23;;;;;;;10.32;45.47;96228.47;5115766;28;20030;-61
2021/12/25 10:13:36;;;;;;;4.45;3.67;;;;;;;10.39;44.97;96219.50;5115995;28;20745;-66
2021/12/25 10:16:19;;;;;;;5.75;4.05;;;;;;;10.51;45.34;96227.75;5116286;28;20028;-66
2021/12/25 10:18:46;;;;;;;4.45;3.45;;;;;;;10.59;44.80;96220.41;5116412;28;20091;-67
2021/12/25 10:21:18;;;;;;;4.57;3.33;;;;;;;10.53;44.91;96215.47;5116316;27;20024;-67
2021/12/25 10:23:44;;;;;;;6.85;3.40;;;;;;;10.49;45.76;96210.38;5115955;28;20131;-63
2021/12/25 10:26:09;;;;;;;5.55;3.60;;;;;;;10.68;45.39;96211.31;5116135;28;20051;-68
2021/12/25 10:28:38;;;;;;;5.00;3.53;;;;;;;10.82;44.82;96210.72;5116034;28;20070;-66
2021/12/25 10:31:08;;;;;;;3.58;3.20;;;;;;;10.86;45.02;96204.41;5116130;28;20084;-65
2021/12/25 10:33:49;;;;;;;4.35;3.67;;;;;;;10.92;44.95;96201.53;5116021;27;20058;-65
2021/12/25 10:36:21;;;;;;;6.63;3.85;;;;;;;11.00;45.19;96198.56;5116112;28;20107;-70
2021/12/25 10:39:17;;;;;;;4.60;3.25;;;;;;;11.10;44.87;96192.00;5116036;28;20023;-66
2021/12/25 10:41:53;;;;;;;5.00;3.25;;;;;;;11.14;44.31;96186.63;5101085;27;20067;-67
2021/12/25 10:44:21;;;;;;;8.77;5.88;;;;;;;11.19;44.81;96184.63;5115766;28;20081;-68
2021/12/25 10:46:51;;;;;;;12.95;7.43;;;;;;;11.30;45.15;96192.00;5116227;27;20098;-67
2021/12/25 10:49:19;;;;;;;7.78;5.60;;;;;;;11.49;44.00;96185.00;5115874;28;20031;-68
2021/12/25 10:51:45;;;;;;;4.95;3.20;;;;;;;11.55;44.65;96188.22;5114229;28;20497;-63
2021/12/25 10:54:13;;;;;;;5.57;4.43;;;;;;;11.67;44.62;96181.53;5115559;28;20385;-65
2021/12/25 10:56:41;;;;;;;3.95;3.25;;;;;;;11.80;43.12;96182.66;5115670;28;20361;-65
2021/12/25 10:59:19;;;;;;;4.85;3.58;;;;;;;11.91;44.00;96181.28;5115532;28;20016;-68
2021/12/25 11:01:49;;;;;;;4.32;2.92;;;;;;;11.99;43.12;96181.75;5115591;28;20650;-66
2021/12/25 11:04:36;;;;;;;4.63;2.60;;;;;;;12.08;42.84;96172.63;5115350;28;20027;-64
2021/12/25 11:07:16;;;;;;;5.50;3.70;;;;;;;12.16;42.99;96177.47;5115479;28;20043;-65
2021/12/25 11:10:21;;;;;;;4.70;3.00;;;;;;;12.18;43.03;96175.63;5115246;28;20030;-64
2021/12/25 11:12:47;;;;;;;4.18;2.92;;;;;;;12.10;42.81;96173.41;5032833;28;20049;-69
2021/12/25 11:15:24;;;;;;;4.22;3.33;;;;;;;12.01;43.06;96170.28;5032743;28;20045;-65
2021/12/25 11:18:04;;;;;;;6.25;4.90;;;;;;;12.05;43.54;96170.97;5077837;28;20036;-68
2021/12/25 11:20:35;;;;;;;7.88;5.47;;;;;;;12.11;43.23;96168.09;5115193;28;20389;-62
2021/12/25 11:23:03;;;;;;;7.10;6.07;;;;;;;11.98;42.96;96167.78;5114474;28;20118;-64
2021/12/25 11:25:32;;;;;;;8.73;6.72;;;;;;;11.82;43.55;96170.34;5115095;28;20031;-63
2021/12/25 11:28:00;;;;;;;9.13;6.65;;;;;;;11.78;43.60;96176.66;5115053;28;20497;-65
2021/12/25 11:30:38;;;;;;;8.50;6.45;;;;;;;11.78;43.50;96163.56;5114727;28;20047;-67
2021/12/25 11:33:04;;;;;;;13.30;7.07;;;;;;;11.66;43.93;96162.38;5115091;28;20725;-63
2021/12/25 11:35:34;;;;;;;11.40;8.07;;;;;;;11.60;44.34;96163.53;5114964;27;20064;-66
2021/12/25 11:38:00;;;;;;;9.88;6.60;;;;;;;11.60;44.29;96163.53;5114931;28;20380;-68
2021/12/25 11:40:28;;;;;;;11.00;8.13;;;;;;;11.59;44.37;96160.97;5114915;28;20023;-65
2021/12/25 11:42:56;;;;;;;8.90;6.90;;;;;;;11.55;45.01;96160.25;5114622;28;20027;-66
2021/12/25 11:45:48;;;;;;;11.40;7.82;;;;;;;11.48;45.34;96162.34;5114539;28;20028;-65
2021/12/25 11:48:16;;;;;;;10.18;7.30;;;;;;;11.39;44.86;96160.16;5114669;28;20023;-63
2021/12/25 11:50:46;;;;;;;9.27;6.65;;;;;;;11.38;44.80;96161.91;5114680;28;20061;-65
2021/12/25 11:53:25;;;;;;;10.50;7.65;;;;;;;11.38;45.33;96161.91;5114513;28;20031;-64
2021/12/25 11:59:00;;;;;;;9.40;6.65;;;;;;;11.47;45.27;96150.16;5114565;28;20027;-65
2021/12/25 12:01:37;;;;;;;9.00;6.38;;;;;;;11.38;44.82;96151.44;5114469;28;20042;-66
2021/12/25 12:04:24;;;;;;;8.60;6.72;;;;;;;11.47;45.37;96146.69;5114365;28;20044;-63
2021/12/25 12:06:59;;;;;;;9.40;6.82;;;;;;;11.46;45.52;96150.22;5114774;28;20058;-67
2021/12/25 12:09:50;;;;;;;11.68;7.60;;;;;;;11.42;45.41;96148.69;5114386;28;20027;-66
2021/12/25 12:12:28;;;;;;;10.35;7.82;;;;;;;11.33;45.45;96156.06;5114041;28;20035;-66
2021/12/25 12:15:19;;;;;;;12.35;8.00;;;;;;;11.36;45.56;96139.34;5114293;28;20028;-66
2021/12/25 12:17:47;;;;;;;9.13;6.68;;;;;;;11.41;45.81;96133.91;5114005;28;20043;-64
2021/12/25 12:20:39;;;;;;;8.98;7.20;;;;;;;11.35;45.79;96130.63;5113930;28;20446;-66
2021/12/25 12:23:48;;;;;;;9.93;6.35;;;;;;;11.32;45.78;96127.34;5113644;28;20097;-64
2021/12/25 12:26:34;;;;;;;8.00;6.28;;;;;;;11.29;46.06;96123.06;5114349;28;20389;-63
2021/12/25 12:29:00;;;;;;;8.07;6.32;;;;;;;11.30;46.00;96135.25;5113745;28;20528;-64
2021/12/25 12:31:47;;;;;;;10.05;6.90;;;;;;;11.28;45.61;96129.22;5113790;28;20024;-64
2021/12/25 12:34:40;;;;;;;8.85;6.88;;;;;;;11.25;45.86;96124.13;5113239;28;20046;-62
2021/12/25 12:37:18;;;;;;;8.52;6.70;;;;;;;11.21;46.32;96122.59;5114255;28;20158;-64
2021/12/25 12:40:07;;;;;;;9.75;6.97;;;;;;;11.12;45.73;96126.50;5113848;28;20035;-64
2021/12/25 12:45:10;;;;;;;8.65;6.72;;;;;;;11.01;46.54;96126.16;5113932;28;20040;-66
2021/12/25 12:47:39;;;;;;;8.27;6.68;;;;;;;10.94;46.79;96130.81;5113562;28;20110;-65
2021/12/25 12:50:11;;;;;;;8.85;7.47;;;;;;;10.97;46.38;96125.44;5113504;28;20103;-65
2021/12/25 12:52:43;;;;;;;9.27;6.65;;;;;;;10.93;46.53;96129.13;5113718;28;20032;-64
2021/12/25 12:55:10;;;;;;;9.57;6.90;;;;;;;10.84;46.97;96125.16;5112631;28;20078;-65
2021/12/25 12:57:43;;;;;;;14.13;8.60;;;;;;;10.84;47.04;96131.22;5113453;28;20019;-64
2021/12/25 13:00:25;;;;;;;12.60;8.95;;;;;;;10.87;47.14;96127.63;5113816;28;20038;-65
2021/12/25 13:02:56;;;;;;;12.80;8.70;;;;;;;10.84;47.48;96119.94;5113638;28;20492;-64
2021/12/25 13:05:36;;;;;;;9.80;7.03;;;;;;;10.73;46.93;96120.41;5113556;28;20050;-67